createdAt,value
2023-04-29T00:04:18.016Z,11.61
2023-04-29T00:09:19.354Z,11.55
2023-04-29T00:14:21.028Z,11.46
2023-04-29T00:19:22.208Z,11.42
2023-04-29T00:24:23.405Z,11.37
2023-04-29T00:29:24.628Z,11.34
2023-04-29T00:34:25.892Z,11.33
2023-04-29T00:39:27.164Z,11.34
2023-04-29T00:44:28.344Z,11.35
2023-04-29T00:49:29.567Z,11.33
2023-04-29T00:54:30.825Z,11.28
2023-04-29T00:59:33.199Z,11.27
2023-04-29T01:04:34.786Z,11.25
2023-04-29T01:09:36.273Z,11.24
2023-04-29T01:14:37.470Z,11.14
2023-04-29T01:19:38.622Z,11.11
2023-04-29T01:24:39.789Z,11.06
2023-04-29T01:29:40.986Z,10.92
2023-04-29T01:34:42.132Z,10.83
2023-04-29T01:39:43.290Z,10.81
2023-04-29T01:44:44.500Z,10.79
2023-04-29T01:49:46.856Z,10.78
2023-04-29T01:54:48.067Z,10.81
2023-04-29T01:59:49.276Z,10.83
2023-04-29T02:04:50.656Z,10.73
2023-04-29T02:09:52.070Z,10.67
2023-04-29T02:14:53.741Z,10.61
2023-04-29T02:19:55.188Z,10.63
2023-04-29T02:24:56.450Z,10.63
2023-04-29T02:29:57.654Z,10.55
2023-04-29T02:34:58.839Z,10.55
2023-04-29T02:39:59.973Z,10.50
2023-04-29T02:45:01.278Z,10.36
2023-04-29T02:50:02.516Z,10.35
2023-04-29T02:55:03.777Z,10.31
2023-04-29T03:00:05.035Z,10.28
2023-04-29T03:05:06.220Z,10.25
2023-04-29T03:10:07.441Z,10.23
2023-04-29T03:15:10.390Z,10.25
2023-04-29T03:20:11.619Z,10.09
2023-04-29T03:25:13.255Z,10.05
2023-04-29T03:30:14.527Z,9.93
2023-04-29T03:35:16.041Z,9.82
2023-04-29T03:40:17.382Z,9.84
2023-04-29T03:45:18.668Z,9.84
2023-04-29T03:50:19.855Z,9.84
2023-04-29T03:55:21.047Z,9.86
2023-04-29T04:00:22.314Z,9.76
2023-04-29T04:05:25.235Z,9.73
2023-04-29T04:10:26.443Z,9.67
2023-04-29T04:15:27.740Z,9.60
2023-04-29T04:20:28.944Z,9.51
2023-04-29T04:25:30.299Z,9.54
2023-04-29T04:30:31.511Z,9.50
2023-04-29T04:35:32.736Z,9.46
2023-04-29T04:40:34.016Z,9.44
2023-04-29T04:45:35.225Z,9.48
2023-04-29T04:50:36.474Z,9.44
2023-04-29T04:55:37.821Z,9.43
2023-04-29T05:00:39.012Z,9.43
2023-04-29T05:05:40.194Z,9.39
2023-04-29T05:10:41.333Z,9.31
2023-04-29T05:15:42.956Z,9.43
2023-04-29T05:20:44.144Z,9.42
2023-04-29T05:25:45.476Z,9.44
2023-04-29T05:30:47.366Z,9.44
2023-04-29T05:35:48.546Z,9.43
2023-04-29T05:40:50.690Z,9.40
2023-04-29T05:45:51.950Z,9.45
2023-04-29T05:50:54.005Z,9.51
2023-04-29T05:55:55.425Z,9.41
2023-04-29T06:00:58.144Z,9.45
2023-04-29T06:06:01.375Z,9.55
2023-04-29T06:11:05.270Z,9.58
2023-04-29T06:16:07.493Z,9.56
2023-04-29T06:21:08.700Z,9.59
2023-04-29T06:26:09.838Z,9.44
2023-04-29T06:31:11.121Z,9.47
2023-04-29T06:36:12.313Z,9.52
2023-04-29T06:41:13.466Z,9.56
2023-04-29T06:46:14.734Z,9.62
2023-04-29T06:51:16.122Z,9.78
2023-04-29T06:56:17.341Z,9.75
2023-04-29T07:01:18.585Z,9.74
2023-04-29T07:06:19.846Z,9.76
2023-04-29T07:11:21.173Z,9.84
2023-04-29T07:16:22.588Z,9.86
2023-04-29T07:21:23.830Z,9.86
2023-04-29T07:26:25.008Z,9.87
2023-04-29T07:31:26.554Z,9.82
2023-04-29T07:36:28.666Z,9.76
2023-04-29T07:41:29.950Z,9.72
2023-04-29T07:46:31.473Z,9.82
2023-04-29T07:51:32.846Z,9.89
2023-04-29T07:56:33.996Z,9.97
2023-04-29T08:01:35.352Z,10.12
2023-04-29T08:06:36.862Z,10.49
2023-04-29T08:11:39.903Z,10.61
2023-04-29T08:16:41.201Z,10.59
2023-04-29T08:21:42.693Z,10.64
2023-04-29T08:26:43.925Z,10.50
2023-04-29T08:31:45.253Z,10.43
2023-04-29T08:36:46.548Z,10.49
2023-04-29T08:41:51.282Z,10.48
2023-04-29T08:46:52.946Z,10.43
2023-04-29T08:51:54.229Z,10.49
2023-04-29T08:56:55.716Z,10.62
2023-04-29T09:01:56.979Z,10.61
2023-04-29T09:06:58.230Z,10.62
2023-04-29T09:11:59.520Z,10.50
2023-04-29T09:17:00.700Z,10.54
2023-04-29T09:22:01.896Z,10.53
2023-04-29T09:27:03.539Z,10.49
2023-04-29T09:32:04.886Z,10.45
2023-04-29T09:37:06.438Z,10.47
2023-04-29T09:42:08.995Z,10.49
2023-04-29T09:47:10.196Z,10.57
2023-04-29T09:52:11.574Z,10.49
2023-04-29T09:57:12.859Z,10.69
2023-04-29T10:02:15.481Z,10.63
2023-04-29T10:07:19.080Z,10.45
2023-04-29T10:12:20.483Z,10.40
2023-04-29T10:17:21.916Z,10.33
2023-04-29T10:22:23.127Z,10.26
2023-04-29T10:27:25.371Z,10.33
2023-04-29T10:32:30.446Z,10.47
2023-04-29T10:37:34.029Z,10.34
2023-04-29T10:42:35.299Z,10.18
2023-04-29T10:47:36.565Z,10.19
2023-04-29T10:52:37.821Z,10.22
2023-04-29T10:57:39.002Z,10.25
2023-04-29T11:02:40.569Z,10.19
2023-04-29T11:07:41.854Z,10.19
2023-04-29T11:12:43.103Z,10.25
2023-04-29T11:17:44.275Z,10.42
2023-04-29T11:22:45.480Z,10.42
2023-04-29T11:27:48.366Z,10.51
2023-04-29T11:32:51.819Z,10.64
2023-04-29T11:37:53.932Z,10.64
2023-04-29T11:42:55.108Z,10.51
2023-04-29T11:47:56.378Z,10.57
2023-04-29T11:52:57.569Z,10.73
2023-04-29T11:57:58.877Z,10.83
2023-04-29T12:03:00.150Z,10.79
2023-04-29T12:08:01.586Z,11.00
2023-04-29T12:13:03.410Z,10.97
2023-04-29T12:18:04.650Z,10.98
2023-04-29T12:23:06.273Z,11.34
2023-04-29T12:28:08.502Z,11.76
2023-04-29T12:33:09.900Z,12.06
2023-04-29T12:38:11.202Z,12.54
2023-04-29T12:43:12.380Z,12.97
2023-04-29T12:48:25.315Z,13.05
2023-04-29T12:53:30.291Z,13.74
2023-04-29T12:58:32.178Z,14.00
2023-04-29T13:03:34.162Z,13.78
2023-04-29T13:08:35.525Z,13.72
2023-04-29T13:13:36.736Z,13.95
2023-04-29T13:18:39.177Z,14.32
2023-04-29T13:23:41.034Z,14.18
2023-04-29T13:28:43.326Z,14.44
2023-04-29T13:33:44.591Z,13.78
2023-04-29T13:38:46.945Z,13.55
2023-04-29T13:43:50.973Z,13.46
2023-04-29T13:54:48.050Z,13.25
2023-04-29T14:04:22.013Z,13.25
2023-04-29T14:09:23.305Z,13.20
2023-04-29T14:14:24.601Z,13.43
2023-04-29T14:19:25.831Z,13.43
2023-04-29T14:24:26.981Z,13.55
2023-04-29T14:29:28.124Z,13.84
2023-04-29T14:34:29.278Z,13.75
2023-04-29T14:39:30.527Z,13.82
2023-04-29T14:44:31.735Z,13.62
2023-04-29T14:49:32.933Z,13.67
2023-04-29T14:54:34.103Z,13.79
2023-04-29T14:59:35.291Z,13.83
2023-04-29T15:04:37.783Z,13.92
2023-04-29T15:09:39.053Z,13.87
2023-04-29T15:14:40.278Z,13.70
2023-04-29T15:19:41.724Z,13.88
2023-04-29T15:24:42.971Z,13.80
2023-04-29T15:29:44.166Z,13.74
2023-04-29T15:34:45.669Z,13.62
2023-04-29T15:39:46.833Z,13.60
2023-04-29T15:44:48.077Z,13.83
2023-04-29T15:49:52.832Z,13.72
2023-04-29T15:54:54.221Z,13.56
2023-04-29T15:59:55.611Z,13.55
2023-04-29T16:04:57.040Z,13.47
2023-04-29T16:09:58.224Z,13.53
2023-04-29T16:14:59.489Z,13.49
2023-04-29T16:20:01.404Z,13.51
2023-04-29T16:25:03.842Z,13.54
2023-04-29T16:30:05.125Z,13.62
2023-04-29T16:35:06.485Z,13.49
2023-04-29T16:40:07.689Z,13.79
2023-04-29T16:45:08.850Z,13.90
2023-04-29T16:50:10.838Z,14.02
2023-04-29T16:55:12.374Z,14.04
2023-04-29T17:00:13.958Z,13.98
2023-04-29T17:05:16.203Z,13.92
2023-04-29T17:10:17.428Z,13.88
2023-04-29T17:15:18.579Z,13.95
2023-04-29T17:20:19.787Z,13.85
2023-04-29T17:25:22.395Z,13.79
2023-04-29T17:30:24.741Z,13.76
2023-04-29T17:35:26.036Z,13.81
2023-04-29T17:40:27.491Z,13.79
2023-04-29T17:45:28.712Z,13.69
2023-04-29T17:50:29.961Z,13.63
2023-04-29T17:55:31.395Z,13.50
2023-04-29T18:00:32.544Z,13.40
2023-04-29T18:05:33.728Z,13.28
2023-04-29T18:10:34.913Z,13.18
2023-04-29T18:15:36.107Z,13.12
2023-04-29T18:20:37.290Z,13.01
2023-04-29T18:25:38.466Z,12.93
2023-04-29T18:30:39.810Z,12.82
2023-04-29T18:35:41.057Z,12.73
2023-04-29T18:40:42.266Z,12.67
2023-04-29T18:45:43.485Z,12.53
2023-04-29T18:50:44.702Z,12.38
2023-04-29T18:55:46.665Z,12.21
2023-04-29T19:00:47.821Z,12.09
2023-04-29T19:05:49.189Z,12.02
2023-04-29T19:10:50.633Z,11.92
2023-04-29T19:15:53.567Z,11.82
2023-04-29T19:20:55.980Z,11.79
2023-04-29T19:25:57.246Z,11.75
2023-04-29T19:30:58.533Z,11.71
2023-04-29T19:35:59.750Z,11.64
2023-04-29T19:41:01.188Z,11.58
2023-04-29T19:46:02.456Z,11.55
2023-04-29T19:51:03.721Z,11.55
2023-04-29T19:56:05.242Z,11.56
2023-04-29T20:01:06.519Z,11.52
2023-04-29T20:06:10.773Z,11.47
2023-04-29T20:11:12.906Z,11.44
2023-04-29T20:16:14.210Z,11.41
2023-04-29T20:21:15.438Z,11.33
2023-04-29T20:26:17.790Z,11.24
2023-04-29T20:31:20.261Z,11.14
2023-04-29T20:36:21.864Z,10.96
2023-04-29T20:41:23.026Z,10.81
2023-04-29T20:46:26.074Z,10.69
2023-04-29T20:51:27.675Z,10.51
2023-04-29T20:56:29.103Z,10.44
2023-04-29T21:01:30.320Z,10.39
2023-04-29T21:06:32.138Z,10.36
2023-04-29T21:11:33.351Z,10.30
2023-04-29T21:16:34.578Z,10.06
2023-04-29T21:21:35.715Z,9.90
2023-04-29T21:26:36.916Z,9.78
2023-04-29T21:31:38.157Z,9.69
2023-04-29T21:36:39.392Z,9.66
2023-04-29T21:41:40.611Z,9.65
2023-04-29T21:46:41.862Z,9.56
2023-04-29T21:51:43.091Z,9.46
2023-04-29T21:56:44.310Z,9.40
2023-04-29T22:01:45.474Z,9.45
2023-04-29T22:06:46.847Z,9.30
2023-04-29T22:11:48.118Z,9.25
2023-04-29T22:16:49.488Z,9.19
2023-04-29T22:21:50.707Z,9.07
2023-04-29T22:26:51.848Z,8.99
2023-04-29T22:31:53.136Z,8.99
2023-04-29T22:36:54.324Z,9.19
2023-04-29T22:41:55.685Z,9.28
2023-04-29T22:46:56.938Z,9.20
2023-04-29T22:51:58.109Z,9.15
2023-04-29T22:56:59.319Z,8.99
2023-04-29T23:02:00.588Z,9.06
2023-04-29T23:07:01.766Z,9.02
2023-04-29T23:12:03.179Z,8.99
2023-04-29T23:17:04.379Z,9.05
2023-04-29T23:22:08.592Z,9.08
2023-04-29T23:27:09.830Z,9.04
2023-04-29T23:32:11.041Z,9.06
2023-04-29T23:37:12.293Z,9.10
2023-04-29T23:42:13.458Z,9.08
2023-04-29T23:47:14.695Z,9.07
2023-04-29T23:52:15.907Z,9.02
2023-04-29T23:57:17.843Z,8.95
